Aérodrome :
LOGIN :

S'inscrire | Disclaimer

   EN    FR    IT 

 










Légende :    VFR   VFR Marginal   IFR   IFR Intensif   IFR Très Intensif
Visi : 
Plafond : 
>= 8 km
>= 3000ft
5 à 8 km
1000 à 3000 ft
1500m à 5 km
500 à 1000 ft
800 à 1500m
200 à 500 ft
< 800m
< 200 ft
Symboles :   Orages  Brouillard  Fortes neiges  Fortes précipitations  Vent > 20 kt
SIGMETs :   Divers  Orages  Givrage  Turbulence  Onde Orograph.  Cendres Volcan.






- Altitude de l'aérodrome : 659 ft
- Code IATA : LYN


LFLY - Lyon Bron

DERNIER METAR :
  • 190430Z AUTO 35005KT 9999 OVC016 05/03 Q1015 BECMG BKN012

METARs EXPIRÉS :
  • 190400Z AUTO 34004KT 9999 OVC017 05/03 Q1015 TEMPO 4000 BR BECMG BKN012
  • 190330Z AUTO 01003KT 330V030 9999 OVC018 05/02 Q1015 TEMPO 4000 BR BECMG BKN012
  • 190300Z AUTO 33004KT 9999 OVC020 05/02 Q1015 TEMPO 4000 BR BKN014
  • 190230Z AUTO 33003KT 9999 BKN021 OVC032 05/02 Q1016 TEMPO 4000 BR BKN014
  • 190200Z AUTO 33003KT 9999 BKN029 OVC035 05/02 Q1016 TEMPO 4000 BR BKN014

TAF TAF LFLY
Valide du 19 à 00h jusqu'au 20 à 00h UTC


182300Z 1900/1924 33002KT 9999 BKN020
PROB40
TEMPO 1900/1905 4000 BR BKN014
BECMG 1905/1907 34008KT BKN012
TEMPO 1907/1912 OVC006
BECMG 1912/1914 BKN016
ATIS : +33 4 72 15 87 96



MET'MAP, la Météo Aéronautique d'un coup d'oeil ! - Copyright ORBIFLY Décembre 2007 - Disclaimer

ORBIFLY MET'MAP TEAM :

Programmation & Développement : Alexandra Zaïnal
Conception & Développement : Baudouin d'Aumeries
Co-Programmation & Développement : Marc-Olivier Méhu
Soutien technique & logistique : Manuel Goepfert

Contact : metmap@orbifly.com




SOURCES & CREDITS :

   NOAA